createdAt,value
2018-03-29T00:00:33.809Z,91.00
2018-03-29T00:03:02.564Z,90.40
2018-03-29T00:05:30.016Z,90.00
2018-03-29T00:07:57.471Z,89.00
2018-03-29T00:10:24.904Z,89.20
2018-03-29T00:12:52.348Z,89.70
2018-03-29T00:15:19.806Z,90.10
2018-03-29T00:17:47.358Z,90.30
2018-03-29T00:20:14.811Z,90.00
2018-03-29T00:22:42.260Z,90.70
2018-03-29T00:25:09.717Z,90.00
2018-03-29T00:27:37.168Z,90.30
2018-03-29T00:30:04.606Z,90.30
2018-03-29T00:32:32.060Z,90.70
2018-03-29T00:34:59.489Z,90.60
2018-03-29T00:37:26.927Z,90.60
2018-03-29T00:39:54.382Z,90.80
2018-03-29T00:42:21.804Z,91.00
2018-03-29T00:44:49.259Z,91.40
2018-03-29T00:47:16.690Z,91.60
2018-03-29T00:49:44.132Z,91.70
2018-03-29T00:52:11.612Z,91.90
2018-03-29T00:54:39.046Z,91.90
2018-03-29T00:57:06.522Z,92.10
2018-03-29T00:59:33.975Z,92.10
2018-03-29T01:02:01.422Z,92.20
2018-03-29T01:04:28.871Z,91.70
2018-03-29T01:06:56.304Z,91.70
2018-03-29T01:09:23.769Z,91.10
2018-03-29T01:11:51.409Z,91.40
2018-03-29T01:14:18.853Z,90.70
2018-03-29T01:16:46.316Z,90.70
2018-03-29T01:19:13.754Z,90.80
2018-03-29T01:21:41.220Z,90.70
2018-03-29T01:24:08.657Z,90.40
2018-03-29T01:26:36.733Z,90.70
2018-03-29T01:29:04.189Z,90.70
2018-03-29T01:31:31.656Z,90.70
2018-03-29T01:33:59.100Z,90.70
2018-03-29T01:36:26.546Z,90.60
2018-03-29T01:38:53.975Z,90.30
2018-03-29T01:41:21.451Z,90.40
2018-03-29T01:43:50.401Z,90.70
2018-03-29T01:46:17.857Z,90.70
2018-03-29T01:48:45.295Z,90.90
2018-03-29T01:51:12.730Z,91.00
2018-03-29T01:53:40.177Z,91.30
2018-03-29T01:56:07.639Z,91.20
2018-03-29T01:58:35.089Z,91.20
2018-03-29T02:01:02.555Z,91.30
2018-03-29T02:03:30.000Z,91.40
2018-03-29T02:05:57.473Z,91.50
2018-03-29T02:08:24.910Z,91.80
2018-03-29T02:10:52.371Z,91.70
2018-03-29T02:13:19.821Z,91.70
2018-03-29T02:15:47.253Z,91.60
2018-03-29T02:18:15.085Z,91.50
2018-03-29T02:20:42.518Z,91.20
2018-03-29T02:23:09.978Z,91.30
2018-03-29T02:25:37.414Z,91.30
2018-03-29T02:28:04.894Z,91.30
2018-03-29T02:30:32.349Z,91.00
2018-03-29T02:33:03.483Z,90.90
2018-03-29T02:35:30.932Z,90.90
2018-03-29T02:37:58.375Z,91.20
2018-03-29T02:40:25.798Z,91.10
2018-03-29T02:42:53.256Z,91.10
2018-03-29T02:45:20.694Z,91.10
2018-03-29T02:47:48.193Z,91.10
2018-03-29T02:50:15.635Z,91.20
2018-03-29T02:52:43.090Z,91.20
2018-03-29T02:55:10.558Z,91.20
2018-03-29T02:57:37.976Z,91.30
2018-03-29T03:00:05.410Z,91.30
2018-03-29T03:02:32.851Z,91.50
2018-03-29T03:05:00.393Z,91.60
2018-03-29T03:07:27.849Z,91.40
2018-03-29T03:09:58.239Z,91.50
2018-03-29T03:12:25.664Z,91.30
2018-03-29T03:14:53.139Z,91.10
2018-03-29T03:17:20.574Z,91.40
2018-03-29T03:19:48.026Z,91.60
2018-03-29T03:22:15.491Z,91.80
2018-03-29T03:24:42.950Z,91.70
2018-03-29T03:27:10.398Z,91.70
2018-03-29T03:29:37.829Z,91.70
2018-03-29T03:32:05.291Z,91.80
2018-03-29T03:34:32.729Z,91.80
2018-03-29T03:37:00.190Z,91.90
2018-03-29T03:39:27.836Z,91.80
2018-03-29T03:41:55.286Z,92.00
2018-03-29T03:44:22.759Z,92.30
2018-03-29T03:46:50.239Z,92.60
2018-03-29T03:49:17.716Z,92.60
2018-03-29T03:51:45.184Z,92.60
2018-03-29T03:54:12.633Z,92.50
2018-03-29T03:56:40.071Z,92.60
2018-03-29T03:59:07.930Z,92.60
2018-03-29T04:01:35.388Z,92.60
2018-03-29T04:04:02.848Z,92.80
2018-03-29T04:06:30.320Z,93.10
2018-03-29T04:08:57.757Z,93.20
2018-03-29T04:11:25.200Z,93.50
2018-03-29T04:13:53.426Z,93.60
2018-03-29T04:16:20.877Z,93.50
2018-03-29T04:18:48.330Z,93.60
2018-03-29T04:21:15.852Z,93.70
2018-03-29T04:23:43.283Z,94.00
2018-03-29T04:26:10.730Z,94.00
2018-03-29T04:28:38.189Z,94.10
2018-03-29T04:31:05.638Z,94.20
2018-03-29T04:33:33.091Z,94.30
2018-03-29T04:36:00.546Z,94.40
2018-03-29T04:38:27.990Z,94.30
2018-03-29T04:40:55.438Z,94.20
2018-03-29T04:43:22.889Z,94.20
2018-03-29T04:45:50.421Z,94.20
2018-03-29T04:48:17.886Z,94.20
2018-03-29T04:50:45.419Z,94.10
2018-03-29T04:53:12.843Z,94.10
2018-03-29T04:55:40.292Z,94.00
2018-03-29T04:58:07.738Z,94.00
2018-03-29T05:00:35.194Z,93.90
2018-03-29T05:03:05.682Z,93.80
2018-03-29T05:05:33.130Z,93.70
2018-03-29T05:08:00.590Z,93.80
2018-03-29T05:10:28.108Z,93.70
2018-03-29T05:12:55.587Z,93.80
2018-03-29T05:15:23.026Z,93.70
2018-03-29T05:17:50.469Z,93.60
2018-03-29T05:20:17.920Z,93.40
2018-03-29T05:22:45.425Z,93.40
2018-03-29T05:25:12.872Z,93.40
2018-03-29T05:27:45.873Z,93.30
2018-03-29T05:30:13.325Z,93.10
2018-03-29T05:32:40.908Z,93.20
2018-03-29T05:35:08.337Z,92.60
2018-03-29T05:37:35.785Z,92.60
2018-03-29T05:40:03.228Z,92.20
2018-03-29T05:42:30.671Z,92.30
2018-03-29T05:44:58.949Z,92.30
2018-03-29T05:47:26.341Z,92.30
2018-03-29T05:49:53.805Z,92.30
2018-03-29T05:52:21.270Z,92.20
2018-03-29T05:54:48.689Z,92.30
2018-03-29T05:57:16.133Z,92.50
2018-03-29T05:59:43.698Z,92.20
2018-03-29T06:02:11.143Z,92.20
2018-03-29T06:04:39.374Z,92.10
2018-03-29T06:07:06.823Z,92.10
2018-03-29T06:09:34.287Z,92.10
2018-03-29T06:12:01.761Z,92.10
2018-03-29T06:14:34.767Z,92.30
2018-03-29T06:17:02.190Z,91.60
2018-03-29T06:19:30.407Z,91.70
2018-03-29T06:21:57.906Z,91.70
2018-03-29T06:24:25.305Z,91.70
2018-03-29T06:26:52.766Z,91.70
2018-03-29T06:29:20.575Z,91.90
2018-03-29T06:31:47.997Z,91.70
2018-03-29T06:34:15.443Z,91.80
2018-03-29T06:36:42.964Z,91.60
2018-03-29T06:39:10.414Z,91.30
2018-03-29T06:41:40.727Z,91.20
2018-03-29T06:44:08.153Z,91.20
2018-03-29T06:46:35.610Z,91.00
2018-03-29T06:49:03.123Z,90.70
2018-03-29T06:51:30.633Z,90.30
2018-03-29T06:53:59.546Z,90.00
2018-03-29T06:56:26.966Z,90.00
2018-03-29T06:58:55.014Z,89.10
2018-03-29T07:01:22.469Z,88.60
2018-03-29T07:03:50.048Z,88.80
2018-03-29T07:06:17.488Z,88.90
2018-03-29T07:08:45.121Z,89.50
2018-03-29T07:11:12.578Z,89.20
2018-03-29T07:13:40.410Z,88.90
2018-03-29T07:16:07.882Z,89.20
2018-03-29T07:18:35.338Z,88.30
2018-03-29T07:21:02.906Z,87.70
2018-03-29T07:23:30.347Z,87.40
2018-03-29T07:25:57.792Z,87.00
2018-03-29T07:28:25.242Z,86.30
2018-03-29T07:30:52.758Z,86.20
2018-03-29T07:33:21.709Z,86.50
2018-03-29T07:35:49.502Z,86.50
2018-03-29T07:38:16.940Z,86.90
2018-03-29T07:40:44.403Z,87.00
2018-03-29T07:43:11.840Z,85.90
2018-03-29T07:45:39.286Z,84.80
2018-03-29T07:48:07.508Z,86.30
2018-03-29T07:50:34.945Z,86.20
2018-03-29T07:53:02.733Z,84.80
2018-03-29T07:55:30.168Z,80.80
2018-03-29T07:57:57.821Z,79.00
2018-03-29T08:00:25.233Z,74.70
2018-03-29T08:02:52.709Z,71.70
2018-03-29T08:05:20.164Z,70.10
2018-03-29T08:07:47.701Z,66.90
2018-03-29T08:10:15.137Z,64.00
2018-03-29T08:12:42.613Z,60.60
2018-03-29T08:15:10.067Z,60.00
2018-03-29T08:17:37.520Z,59.20
2018-03-29T08:20:05.165Z,63.20
2018-03-29T08:22:33.389Z,63.30
2018-03-29T08:25:00.848Z,63.20
2018-03-29T08:27:28.292Z,62.20
2018-03-29T08:29:55.737Z,61.10
2018-03-29T08:32:23.181Z,63.30
2018-03-29T08:34:50.631Z,64.90
2018-03-29T08:37:18.081Z,65.70
2018-03-29T08:39:45.554Z,67.20
2018-03-29T08:42:13.009Z,69.00
2018-03-29T08:44:40.651Z,68.60
2018-03-29T08:47:08.088Z,68.10
2018-03-29T08:49:35.546Z,65.90
2018-03-29T08:52:02.976Z,61.90
2018-03-29T08:54:30.442Z,58.90
2018-03-29T08:56:57.877Z,58.90
2018-03-29T08:59:25.416Z,59.20
2018-03-29T09:01:52.842Z,61.00
2018-03-29T09:04:20.296Z,61.50
2018-03-29T09:06:48.325Z,60.40
2018-03-29T09:09:15.809Z,58.30
2018-03-29T09:11:43.278Z,58.10
2018-03-29T09:14:10.724Z,59.20
2018-03-29T09:16:38.182Z,58.90
2018-03-29T09:19:05.697Z,58.70
2018-03-29T09:21:33.079Z,58.00
2018-03-29T09:24:00.662Z,54.90
2018-03-29T09:26:28.111Z,51.00
2018-03-29T09:28:55.544Z,50.00
2018-03-29T09:31:23.017Z,50.30
2018-03-29T09:33:50.573Z,49.90
2018-03-29T09:36:18.249Z,46.40
2018-03-29T09:38:45.693Z,45.80
2018-03-29T09:41:13.125Z,43.90
2018-03-29T09:43:40.574Z,43.30
2018-03-29T09:46:08.036Z,42.50
2018-03-29T09:48:35.770Z,43.80
2018-03-29T09:51:03.266Z,42.40
2018-03-29T09:53:30.781Z,43.10
2018-03-29T09:55:58.564Z,42.70
2018-03-29T09:58:26.038Z,43.10
2018-03-29T10:01:08.830Z,42.70
2018-03-29T10:03:39.045Z,43.20
2018-03-29T10:06:06.506Z,43.20
2018-03-29T10:08:34.218Z,43.90
2018-03-29T10:11:01.667Z,44.30
2018-03-29T10:13:29.121Z,42.50
2018-03-29T10:15:56.557Z,40.20
2018-03-29T10:18:23.999Z,40.70
2018-03-29T10:20:51.643Z,40.10
2018-03-29T10:23:19.493Z,39.80
2018-03-29T10:25:47.153Z,37.80
2018-03-29T10:28:14.684Z,36.80
2018-03-29T10:30:42.997Z,36.80
2018-03-29T10:33:10.452Z,37.50
2018-03-29T10:35:37.885Z,37.80
2018-03-29T10:38:12.193Z,38.30
2018-03-29T10:40:39.805Z,36.30
2018-03-29T10:43:07.345Z,37.60
2018-03-29T10:45:34.799Z,35.90
2018-03-29T10:48:03.981Z,36.90
2018-03-29T10:50:38.276Z,36.70
2018-03-29T10:53:05.709Z,37.30
2018-03-29T10:55:33.148Z,39.30
2018-03-29T10:58:00.982Z,41.20
2018-03-29T11:00:28.381Z,41.30
2018-03-29T11:02:57.210Z,41.80
2018-03-29T11:05:24.837Z,41.10
2018-03-29T11:07:52.621Z,40.90
2018-03-29T11:10:20.111Z,38.20
2018-03-29T11:12:47.966Z,37.60
2018-03-29T11:15:15.450Z,38.00
2018-03-29T11:17:42.886Z,38.60
2018-03-29T11:20:10.329Z,38.60
2018-03-29T11:22:37.782Z,37.90
2018-03-29T11:25:05.262Z,39.00
2018-03-29T11:27:32.825Z,37.70
2018-03-29T11:30:00.301Z,36.60
2018-03-29T11:32:27.763Z,34.90
2018-03-29T11:34:55.396Z,35.30
2018-03-29T11:37:22.846Z,35.00
2018-03-29T11:39:50.305Z,35.10
2018-03-29T11:42:17.917Z,35.10
2018-03-29T11:44:45.765Z,35.10
2018-03-29T11:47:13.229Z,35.00
2018-03-29T11:49:40.825Z,34.60
2018-03-29T11:52:08.664Z,33.40
2018-03-29T11:54:36.107Z,34.80
2018-03-29T11:57:03.770Z,33.90
2018-03-29T11:59:31.439Z,33.90
2018-03-29T12:01:59.028Z,32.70
2018-03-29T12:04:26.509Z,32.40
2018-03-29T12:06:53.945Z,31.60
2018-03-29T12:09:21.378Z,32.00
2018-03-29T12:11:48.843Z,31.30
2018-03-29T12:14:16.369Z,31.30
2018-03-29T12:16:44.585Z,30.70
2018-03-29T12:19:12.257Z,30.60
2018-03-29T12:21:39.719Z,30.70
2018-03-29T12:24:07.174Z,29.40
2018-03-29T12:26:34.606Z,29.70
2018-03-29T12:29:02.421Z,30.90
2018-03-29T12:31:29.926Z,30.40
2018-03-29T12:33:58.871Z,31.80
2018-03-29T12:36:26.394Z,31.70
2018-03-29T12:38:54.594Z,34.00
2018-03-29T12:41:22.068Z,33.90
2018-03-29T12:43:49.502Z,35.50
2018-03-29T12:46:16.933Z,36.60
2018-03-29T12:48:44.781Z,37.80
2018-03-29T12:51:12.241Z,38.80
2018-03-29T12:53:39.732Z,37.30
2018-03-29T12:56:19.249Z,34.80
2018-03-29T12:58:46.712Z,33.90
2018-03-29T13:01:14.140Z,34.60
2018-03-29T13:03:41.594Z,33.70
2018-03-29T13:06:09.111Z,32.50
2018-03-29T13:08:36.555Z,31.10
2018-03-29T13:11:04.098Z,30.90
2018-03-29T13:13:31.541Z,31.00
2018-03-29T13:15:58.990Z,30.40
2018-03-29T13:18:26.448Z,32.80
2018-03-29T13:20:53.900Z,33.80
2018-03-29T13:23:21.529Z,34.90
2018-03-29T13:25:48.965Z,36.10
2018-03-29T13:28:16.409Z,35.50
2018-03-29T13:30:43.864Z,34.00
2018-03-29T13:33:11.309Z,34.10
2018-03-29T13:35:38.757Z,34.40
2018-03-29T13:38:06.598Z,33.00
2018-03-29T13:40:34.039Z,32.30
2018-03-29T13:43:01.551Z,31.50
2018-03-29T13:45:28.985Z,32.40
2018-03-29T13:48:00.720Z,34.40
2018-03-29T13:50:28.166Z,35.10
2018-03-29T13:52:55.605Z,36.80
2018-03-29T13:55:23.057Z,38.40
2018-03-29T13:57:50.893Z,40.30
2018-03-29T14:00:18.328Z,40.90
2018-03-29T14:02:45.765Z,42.00
2018-03-29T14:05:13.217Z,43.30
2018-03-29T14:07:40.666Z,43.90
2018-03-29T14:10:08.117Z,44.80
2018-03-29T14:12:35.800Z,46.40
2018-03-29T14:15:03.214Z,47.50
2018-03-29T14:17:30.791Z,47.80
2018-03-29T14:19:58.404Z,47.50
2018-03-29T14:22:25.843Z,44.80
2018-03-29T14:24:53.278Z,41.20
2018-03-29T14:27:20.740Z,39.80
2018-03-29T14:29:48.189Z,40.10
2018-03-29T14:32:15.703Z,38.40
2018-03-29T14:34:43.324Z,37.50
2018-03-29T14:37:10.772Z,37.80
2018-03-29T14:39:38.229Z,37.00
2018-03-29T14:42:05.696Z,37.00
2018-03-29T14:44:33.130Z,37.20
2018-03-29T14:47:00.587Z,37.20
2018-03-29T14:49:28.803Z,40.50
2018-03-29T14:51:56.274Z,40.40
2018-03-29T14:54:24.329Z,41.00
2018-03-29T14:56:51.757Z,41.50
2018-03-29T14:59:19.572Z,42.30
2018-03-29T15:01:47.241Z,43.60
2018-03-29T15:04:14.847Z,44.00
2018-03-29T15:06:42.297Z,44.90
2018-03-29T15:09:09.724Z,46.40
2018-03-29T15:11:37.504Z,47.20
2018-03-29T15:14:04.935Z,47.60
2018-03-29T15:16:32.389Z,48.10
2018-03-29T15:18:59.830Z,47.80
2018-03-29T15:21:28.165Z,47.80
2018-03-29T15:23:55.603Z,47.80
2018-03-29T15:26:23.262Z,48.00
2018-03-29T15:28:50.661Z,48.00
2018-03-29T15:31:18.111Z,47.90
2018-03-29T15:33:45.550Z,48.00
2018-03-29T15:36:13.039Z,47.90
2018-03-29T15:38:40.805Z,48.30
2018-03-29T15:41:08.450Z,48.50
2018-03-29T15:43:35.906Z,47.80
2018-03-29T15:46:03.343Z,47.60
2018-03-29T15:48:30.999Z,48.00
2018-03-29T15:50:58.430Z,49.00
2018-03-29T15:53:26.010Z,47.50
2018-03-29T15:55:53.457Z,46.20
2018-03-29T15:58:20.910Z,45.50
2018-03-29T16:00:48.360Z,46.20
2018-03-29T16:03:15.823Z,45.50
2018-03-29T16:05:43.294Z,44.60
2018-03-29T16:08:10.738Z,43.40
2018-03-29T16:10:38.173Z,42.70
2018-03-29T16:13:05.627Z,42.60
2018-03-29T16:15:33.067Z,42.50
2018-03-29T16:18:07.273Z,43.00
2018-03-29T16:20:34.724Z,43.70
2018-03-29T16:23:02.572Z,43.50
2018-03-29T16:25:30.067Z,43.10
2018-03-29T16:27:57.516Z,43.90
2018-03-29T16:30:25.045Z,43.20
2018-03-29T16:32:52.506Z,43.60
2018-03-29T16:35:19.951Z,43.50
2018-03-29T16:37:47.391Z,43.80
2018-03-29T16:40:15.602Z,44.50
2018-03-29T16:42:43.046Z,44.40
2018-03-29T16:45:10.485Z,45.10
2018-03-29T16:47:38.701Z,45.90
2018-03-29T16:50:06.138Z,45.90
2018-03-29T16:52:33.660Z,46.50
2018-03-29T16:55:01.117Z,46.70
2018-03-29T16:57:28.874Z,46.90
2018-03-29T16:59:56.316Z,47.50
2018-03-29T17:02:23.766Z,48.00
2018-03-29T17:04:51.205Z,48.70
2018-03-29T17:07:18.700Z,48.70
2018-03-29T17:09:46.168Z,49.20
2018-03-29T17:12:13.959Z,49.70
2018-03-29T17:14:41.398Z,49.80
2018-03-29T17:17:09.700Z,50.30
2018-03-29T17:19:37.142Z,50.70
2018-03-29T17:22:04.584Z,51.30
2018-03-29T17:24:32.037Z,52.10
2018-03-29T17:26:59.481Z,52.10
2018-03-29T17:29:26.939Z,52.40
2018-03-29T17:31:54.480Z,52.80
2018-03-29T17:34:22.114Z,53.10
2018-03-29T17:36:49.634Z,53.40
2018-03-29T17:39:17.580Z,53.80
2018-03-29T17:41:45.110Z,53.90
2018-03-29T17:44:12.545Z,54.20
2018-03-29T17:46:40.744Z,54.90
2018-03-29T17:49:08.231Z,54.80
2018-03-29T17:51:35.684Z,55.30
2018-03-29T17:54:03.558Z,55.90
2018-03-29T17:56:31.129Z,56.40
2018-03-29T17:58:58.566Z,56.90
2018-03-29T18:01:26.111Z,57.20
2018-03-29T18:03:53.559Z,57.20
2018-03-29T18:06:21.577Z,57.40
2018-03-29T18:08:49.194Z,57.30
2018-03-29T18:11:16.737Z,57.40
2018-03-29T18:13:44.571Z,57.40
2018-03-29T18:16:12.453Z,58.30
2018-03-29T18:18:40.222Z,58.50
2018-03-29T18:21:07.659Z,58.60
2018-03-29T18:23:35.305Z,58.60
2018-03-29T18:26:02.753Z,58.70
2018-03-29T18:28:30.264Z,58.80
2018-03-29T18:30:57.757Z,59.00
2018-03-29T18:33:25.204Z,59.20
2018-03-29T18:35:52.668Z,59.70
2018-03-29T18:38:20.137Z,60.30
2018-03-29T18:40:47.585Z,60.80
2018-03-29T18:43:15.024Z,61.00
2018-03-29T18:45:45.789Z,61.30
2018-03-29T18:48:13.460Z,61.30
2018-03-29T18:50:40.940Z,61.30
2018-03-29T18:53:08.440Z,61.70
2018-03-29T18:55:36.238Z,61.80
2018-03-29T18:58:03.684Z,61.90
2018-03-29T19:00:31.137Z,62.20
2018-03-29T19:03:07.849Z,62.40
2018-03-29T19:05:35.292Z,62.70
2018-03-29T19:08:02.742Z,62.90
2018-03-29T19:10:30.178Z,63.00
2018-03-29T19:12:58.145Z,63.20
2018-03-29T19:15:25.593Z,63.50
2018-03-29T19:17:53.033Z,64.10
2018-03-29T19:20:20.464Z,64.70
2018-03-29T19:22:47.935Z,65.10
2018-03-29T19:25:15.370Z,65.80
2018-03-29T19:27:42.837Z,66.10
2018-03-29T19:30:10.274Z,66.40
2018-03-29T19:32:37.694Z,66.80
2018-03-29T19:35:05.370Z,66.90
2018-03-29T19:37:33.561Z,67.60
2018-03-29T19:40:01.761Z,68.20
2018-03-29T19:42:29.211Z,68.10
2018-03-29T19:44:56.649Z,68.20
2018-03-29T19:47:24.092Z,68.40
2018-03-29T19:49:51.538Z,68.60
2018-03-29T19:52:18.979Z,68.90
2018-03-29T19:54:46.431Z,69.30
2018-03-29T19:57:13.867Z,70.10
2018-03-29T19:59:41.385Z,70.10
2018-03-29T20:02:08.928Z,69.80
2018-03-29T20:04:36.365Z,70.20
2018-03-29T20:07:03.821Z,70.20
2018-03-29T20:09:32.046Z,70.60
2018-03-29T20:11:59.729Z,70.60
2018-03-29T20:14:27.169Z,71.00
2018-03-29T20:16:54.757Z,71.60
2018-03-29T20:19:22.158Z,72.10
2018-03-29T20:21:50.368Z,72.40
2018-03-29T20:24:17.824Z,72.40
2018-03-29T20:26:45.269Z,72.40
2018-03-29T20:29:12.718Z,72.70
2018-03-29T20:31:40.178Z,72.70
2018-03-29T20:34:07.782Z,72.80
2018-03-29T20:36:35.373Z,73.00
2018-03-29T20:39:02.807Z,73.00
2018-03-29T20:41:30.265Z,72.90
2018-03-29T20:43:57.725Z,72.90
2018-03-29T20:46:25.164Z,73.80
2018-03-29T20:48:52.617Z,74.20
2018-03-29T20:51:20.155Z,74.30
2018-03-29T20:53:47.590Z,74.50
2018-03-29T20:56:15.122Z,74.60
2018-03-29T20:58:42.545Z,74.90
2018-03-29T21:01:10.010Z,75.60
2018-03-29T21:03:37.450Z,76.20
2018-03-29T21:06:04.890Z,77.00
2018-03-29T21:08:32.342Z,77.60
2018-03-29T21:10:59.773Z,78.30
2018-03-29T21:13:27.286Z,78.30
2018-03-29T21:15:55.560Z,79.50
2018-03-29T21:18:23.019Z,79.60
2018-03-29T21:20:50.478Z,80.10
2018-03-29T21:23:17.909Z,80.50
2018-03-29T21:25:45.800Z,80.50
2018-03-29T21:28:16.597Z,80.60
2018-03-29T21:30:44.301Z,81.00
2018-03-29T21:33:11.755Z,81.50
2018-03-29T21:35:39.198Z,82.10
2018-03-29T21:38:06.818Z,82.40
2018-03-29T21:40:36.908Z,82.80
2018-03-29T21:43:04.485Z,83.30
2018-03-29T21:45:31.926Z,83.50
2018-03-29T21:48:06.878Z,84.10
2018-03-29T21:50:34.322Z,84.40
2018-03-29T21:53:03.259Z,84.50
2018-03-29T21:55:30.685Z,84.80
2018-03-29T21:57:58.140Z,84.80
2018-03-29T22:00:25.586Z,84.80
2018-03-29T22:02:53.054Z,84.70
2018-03-29T22:05:20.498Z,84.60
2018-03-29T22:07:47.938Z,84.80
2018-03-29T22:10:15.385Z,84.60
2018-03-29T22:12:42.847Z,84.80
2018-03-29T22:15:10.291Z,85.30
2018-03-29T22:17:37.725Z,85.00
2018-03-29T22:20:05.187Z,84.90
2018-03-29T22:22:32.634Z,84.70
2018-03-29T22:25:00.075Z,84.80
2018-03-29T22:27:27.555Z,84.80
2018-03-29T22:29:55.158Z,84.90
2018-03-29T22:32:22.630Z,85.10
2018-03-29T22:34:50.091Z,85.80
2018-03-29T22:37:17.510Z,85.70
2018-03-29T22:39:44.957Z,85.70
2018-03-29T22:42:12.393Z,85.80
2018-03-29T22:44:39.849Z,85.90
2018-03-29T22:47:07.286Z,86.00
2018-03-29T22:49:34.729Z,86.00
2018-03-29T22:52:02.181Z,85.80
2018-03-29T22:54:29.626Z,85.50
2018-03-29T22:56:57.074Z,85.30
2018-03-29T22:59:25.285Z,85.30
2018-03-29T23:01:52.718Z,85.20
2018-03-29T23:04:20.181Z,85.10
2018-03-29T23:06:47.879Z,84.90
2018-03-29T23:09:15.312Z,85.00
2018-03-29T23:11:42.770Z,85.10
2018-03-29T23:14:10.233Z,85.00
2018-03-29T23:16:38.565Z,84.70
2018-03-29T23:19:06.050Z,84.80
2018-03-29T23:21:33.506Z,84.60
2018-03-29T23:24:00.964Z,84.60
2018-03-29T23:26:28.414Z,84.70
2018-03-29T23:28:55.846Z,85.20
2018-03-29T23:31:23.312Z,85.50
2018-03-29T23:33:50.742Z,85.70
2018-03-29T23:36:18.175Z,85.90
2018-03-29T23:38:45.630Z,86.30
2018-03-29T23:41:13.069Z,86.70
2018-03-29T23:43:40.535Z,86.60
2018-03-29T23:46:08.277Z,86.70
2018-03-29T23:48:35.729Z,86.90
2018-03-29T23:51:03.181Z,87.70
2018-03-29T23:53:30.617Z,87.90
2018-03-29T23:55:58.072Z,88.50
2018-03-29T23:58:25.512Z,88.90
